• Join FlightAware (Why Join?)
  • Login
  • US Flag 
07:32AM EST


 

Airport Tracker/Info


-or-


 

Live Flight TrackerFlight Track Log ✈ WEW1540 ✈ 30-Apr-2013 ✈ CYQR - CYKY

Flight Track Log - Related Links

Times and Time Zones

All times are in EDT time to prevent confusion due to time zone crossing. See the WEW1540 flight status page for this flight to view local times or setup timezone preferences in your user account.

Time Position Orientation Groundspeed Altitude Reporting Facility
EDT Latitude Longitude Course Direction KTS MPH feet Rate Location/Type
05:45PM 50.4000 -104.7167 308° West 110 127 2,300  Level Winnipeg Center
05:46PM 50.4167 -104.7500 308° West 110 127 3,800 1,500 Climbing Winnipeg Center
05:47PM 50.4167 -104.8000 270° West 100 115 5,300 1,200 Climbing Winnipeg Center
05:48PM 50.4333 -104.8500 298° West 110 127 6,200 1,080 Climbing Winnipeg Center
05:49PM 50.4500 -104.8833 308° West 110 127 7,500 900 Climbing Winnipeg Center
05:50PM 50.4500 -104.9333 270° West 120 138 8,000 240 Climbing Winnipeg Center
05:51PM 50.4833 -105.0000 308° West 150 173 8,000  Level Winnipeg Center
05:52PM 50.5000 -105.0833 287° West 160 184 8,000  Level Winnipeg Center
05:53PM 50.5167 -105.1333 298° West 160 184 8,000  Level Winnipeg Center
05:54PM 50.5333 -105.2000 291° West 170 196 8,000  Level Winnipeg Center
05:55PM 50.5500 -105.2500 298° West 160 184 8,000  Level Winnipeg Center
05:56PM 50.5833 -105.3333 302° West 160 184 8,000  Level Winnipeg Center
05:57PM 50.6000 -105.3833 298° West 160 184 8,000  Level Winnipeg Center
05:58PM 50.6000 -105.4667 270° West 160 184 8,000  Level Winnipeg Center
05:59PM 50.6167 -105.5167 298° West 160 184 8,000  Level Winnipeg Center
06:00PM 50.6333 -105.5833 292° West 160 184 8,000  Level Winnipeg Center
06:01PM 50.6333 -105.6667 270° West 160 184 8,000  Level Winnipeg Center
06:02PM 50.6500 -105.7167 298° West 160 184 8,000  Level Winnipeg Center
06:03PM 50.6833 -105.7667 316° Northwest 150 173 8,100  Climbing Winnipeg Center
06:04PM 50.7167 -105.8333 308° West 160 184 8,100  Level Winnipeg Center
06:05PM 50.7167 -105.9167 270° West 160 184 8,100  Level Winnipeg Center
06:06PM 50.7500 -105.9667 317° Northwest 160 184 8,100  Level Winnipeg Center
06:07PM 50.7667 -106.0333 292° West 160 184 8,200  Climbing Winnipeg Center
06:08PM 50.7667 -106.1167 270° West 170 196 8,200  Level Winnipeg Center
06:09PM 50.7833 -106.1667 298° West 170 196 8,200  Level Winnipeg Center
06:10PM 50.8000 -106.2500 288° West 170 196 8,200  Level Winnipeg Center
06:11PM 50.8167 -106.3167 292° West 170 196 8,200  Level Winnipeg Center
06:12PM 50.8333 -106.3833 292° West 160 184 8,200  Level Winnipeg Center
06:13PM 50.8500 -106.4500 292° West 160 184 8,200  Level Winnipeg Center
06:14PM 50.8833 -106.5000 317° Northwest 160 184 8,200  Level Winnipeg Center
06:16PM 50.9167 -106.6500 289° West 160 184 8,200  Level Winnipeg Center
06:17PM 50.9167 -106.7333 270° West 170 196 8,200  Level Winnipeg Center
06:18PM 50.9333 -106.7833 298° West 170 196 8,200  Level Winnipeg Center
06:19PM 50.9667 -106.8667 302° West 170 196 8,200  Level Winnipeg Center
06:20PM 50.9667 -106.9333 270° West 170 196 8,200  Level Winnipeg Center
06:21PM 51.0000 -107.0167 302° West 170 196 8,200  Level Winnipeg Center
06:22PM 51.0167 -107.0667 298° West 170 196 8,200  Level Winnipeg Center
06:23PM 51.0167 -107.1333 270° West 160 184 8,200  Level Winnipeg Center
06:24PM 51.0333 -107.2167 288° West 160 184 8,200  Level Winnipeg Center
06:25PM 51.0500 -107.2667 298° West 170 196 8,200  Level Winnipeg Center
06:26PM 51.0500 -107.3500 270° West 160 184 8,200  Level Winnipeg Center
06:27PM 51.0833 -107.4000 317° Northwest 170 196 8,200  Level Winnipeg Center
06:28PM 51.1000 -107.4667 292° West 150 173 8,200  Level Winnipeg Center
06:29PM 51.1167 -107.5500 288° West 160 184 8,200  Level Winnipeg Center
06:30PM 51.1333 -107.6000 298° West 150 173 8,200  Level Winnipeg Center
06:31PM 51.1667 -107.6333 328° Northwest 150 173 8,200  Level Winnipeg Center
06:32PM 51.1667 -107.7167 270° West 160 184 8,200  Level Winnipeg Center
06:33PM 51.1833 -107.7833 292° West 170 196 8,200  Level Winnipeg Center
06:34PM 51.2000 -107.8667 288° West 160 184 8,200  Level Winnipeg Center
06:35PM 51.2000 -107.9500 270° West 170 196 8,200  Level Winnipeg Center
06:36PM 51.2167 -108.0000 298° West 160 184 8,200  Level Winnipeg Center
06:37PM 51.2167 -108.0667 270° West 160 184 8,200  Level Winnipeg Center
06:38PM 51.2500 -108.1500 303° West 160 184 8,200  Level Winnipeg Center
06:39PM 51.2667 -108.2000 298° West 160 184 8,200  Level Winnipeg Center
06:40PM 51.2833 -108.2667 292° West 160 184 8,200  Level Winnipeg Center
06:41PM 51.3000 -108.3167 298° West 160 184 8,200  Level Winnipeg Center
06:42PM 51.3333 -108.3833 309° West 160 184 8,200  Level Winnipeg Center
06:43PM 51.3333 -108.4667 270° West 170 196 8,200 -180 Level Winnipeg Center
06:44PM 51.3667 -108.5333 309° West 160 184 7,900 -480 Descending Winnipeg Center
06:45PM 51.3667 -108.6167 270° West 170 196 7,300 -600 Descending Winnipeg Center
06:46PM 51.3833 -108.7000 288° West 180 207 6,800 -540 Descending Winnipeg Center
06:48PM 51.4140 -108.7842 300° West  Level FlightAware Approximate
06:55PM 51.5000 -109.1667 286° West  Level FlightAware Approximate
06:56PM 51.5175 -109.1808 286° West  Level Estimated
06:57PM 51.5175 -109.1808 286° West  Level Estimated
06:58PM 51.5175 -109.1808 286° West  Level Estimated
06:59PM 51.5175 -109.1808 286° West  Level Estimated
07:00PM 51.5175 -109.1808 286° West  Level Estimated
07:01PM 51.5175 -109.1808 286° West  Level Estimated
07:02PM 51.5175 -109.1808 286° West  Level Estimated
07:03PM 51.5175 -109.1808 286° West  Level Estimated
07:04PM 51.5175 -109.1808 286° West  Level Estimated